Downstream station:
SHEF ID: ENWK1 CROOKED C NR ENGLEWOOD, KS
STATION TYPE:
Regulating: Stage = 6.50, Flow = 243
PRECIP STAGE RIV-FLOW BAT-LOAD
in ft cfs volt
Ccp-Rev Ccp-Rev Ccp-Rev Ccp-Rev
(US/Central)
01/02 00:00 0.00 2.72 8 12.77
01/02 01:00 0.00 2.73 8 12.77
01/02 02:00 0.00 2.73 8 12.71
01/02 03:00 0.00 2.74 8 12.65
01/02 04:00 0.00 2.76 8 12.54
01/02 05:00 0.00 2.77 8 12.48
01/02 06:00 0.00 2.78 9 ----
01/02 07:00 0.00 2.78 9 12.42
01/02 08:00 0.00 2.78 9 12.42
01/02 09:00 0.00 2.79 9 13.77
01/02 10:00 0.00 2.67 7 14.94
01/02 11:00 0.00 2.48 4 14.94
01/02 12:00 0.00 2.46 4 14.76
01/02 13:00 0.01 2.44 4 14.59
01/02 14:00 0.00 2.40 3 14.53
01/02 15:00 0.01 2.40 3 14.53
01/02 16:00 0.00 2.40 3 14.47
01/02 17:00 0.00 2.40 3 14.18
01/02 18:00 0.00 2.40 3 13.83
01/02 19:00 0.00 2.40 3 13.24
01/02 20:00 0.00 2.45 4 13.00
01/02 21:00 0.00 2.58 5 12.95
01/02 22:00 0.00 2.67 7 12.89
01/02 23:00 ---- ---- ---- ----